Fluvanna, Texas
Current Conditions -  °F | °C
As of 12:35 AM on Wednesday 28 Jan 2015 (Local Time) from KSWW Reporting Station
Clear Clear  
Wind Chill: 53°   Ceiling: Unl
Heat Index: 53°   Visibility: 10mi
Dew Point: 35°   Wind: 9mph
Humidity: 50%   Direction: 190°S
Pressure: 30.16"   Gusts: NA
Location:  32.89°N, 101.15°W
Report Text: KSWW 280635Z AUTO 19008KT 10SM CLR 12/02 A3016 RMK AO2 T01180016
Loading
Personal Weather Stations






























Interactive Weather Map New forecast layout! Learn more

10-Day Weather Forecast

Advertisements
Track Severe Weather on mobile